createdAt,value
2023-05-28T00:00:59.064Z,6.32
2023-05-28T00:03:26.308Z,5.88
2023-05-28T00:05:54.137Z,5.45
2023-05-28T00:08:21.870Z,5.25
2023-05-28T00:10:49.523Z,6.03
2023-05-28T00:13:18.746Z,5.88
2023-05-28T00:15:46.196Z,6.05
2023-05-28T00:18:15.744Z,6.43
2023-05-28T00:20:42.792Z,5.95
2023-05-28T00:23:09.844Z,6.18
2023-05-28T00:28:03.593Z,5.80
2023-05-28T00:30:30.838Z,6.22
2023-05-28T00:32:57.924Z,6.45
2023-05-28T00:35:26.229Z,6.03
2023-05-28T00:37:53.430Z,6.15
2023-05-28T00:40:20.709Z,5.18
2023-05-28T00:42:48.300Z,4.78
2023-05-28T00:45:15.783Z,5.35
2023-05-28T00:47:42.842Z,5.05
2023-05-28T00:50:10.683Z,5.45
2023-05-28T00:52:38.100Z,5.30
2023-05-28T00:55:16.876Z,5.00
2023-05-28T00:57:44.714Z,5.32
2023-05-28T01:00:13.006Z,5.45
2023-05-28T01:02:40.000Z,5.80
2023-05-28T01:05:07.243Z,4.78
2023-05-28T01:07:34.325Z,5.32
2023-05-28T01:10:01.652Z,4.90
2023-05-28T01:12:29.514Z,4.28
2023-05-28T01:14:56.987Z,4.57
2023-05-28T01:17:24.845Z,5.00
2023-05-28T01:19:51.961Z,5.78
2023-05-28T01:22:22.022Z,5.75
2023-05-28T01:24:50.406Z,6.63
2023-05-28T01:27:18.928Z,5.30
2023-05-28T01:29:46.484Z,4.55
2023-05-28T01:32:13.427Z,5.47
2023-05-28T01:34:40.549Z,4.88
2023-05-28T01:37:10.783Z,5.57
2023-05-28T01:39:43.173Z,5.65
2023-05-28T01:42:12.784Z,5.35
2023-05-28T01:44:41.705Z,4.85
2023-05-28T01:47:11.161Z,5.35
2023-05-28T01:49:39.940Z,5.88
2023-05-28T01:52:09.911Z,4.55
2023-05-28T01:54:36.885Z,5.20
2023-05-28T01:57:04.212Z,5.18
2023-05-28T01:59:32.441Z,5.75
2023-05-28T02:01:59.848Z,5.22
2023-05-28T02:04:27.477Z,6.18
2023-05-28T02:06:54.335Z,5.57
2023-05-28T02:11:48.374Z,6.22
2023-05-28T02:14:15.610Z,5.43
2023-05-28T02:16:46.914Z,6.05
2023-05-28T02:19:14.002Z,5.55
2023-05-28T02:21:41.146Z,4.93
2023-05-28T02:24:08.327Z,6.10
2023-05-28T02:26:35.812Z,4.65
2023-05-28T02:29:03.346Z,4.60
2023-05-28T02:31:30.466Z,4.85
2023-05-28T02:33:57.429Z,5.38
2023-05-28T02:38:52.780Z,5.20
2023-05-28T02:43:49.122Z,4.93
2023-05-28T02:48:43.129Z,4.47
2023-05-28T02:51:11.286Z,5.10
2023-05-28T02:56:26.181Z,6.13
2023-05-28T02:58:53.901Z,5.07
2023-05-28T03:01:21.441Z,5.80
2023-05-28T03:03:49.007Z,5.45
2023-05-28T03:06:16.113Z,5.10
2023-05-28T03:08:49.201Z,5.63
2023-05-28T03:11:16.157Z,5.60
2023-05-28T03:13:43.245Z,5.07
2023-05-28T03:16:10.482Z,5.78
2023-05-28T03:18:37.915Z,6.07
2023-05-28T03:21:08.454Z,6.45
2023-05-28T03:23:36.188Z,6.05
2023-05-28T03:26:26.082Z,5.63
2023-05-28T03:28:53.626Z,5.70
2023-05-28T03:31:45.818Z,6.53
2023-05-28T03:34:14.622Z,5.72
2023-05-28T03:36:42.827Z,6.60
2023-05-28T03:39:12.253Z,6.40
2023-05-28T03:41:39.466Z,5.55
2023-05-28T03:44:08.345Z,6.10
2023-05-28T03:46:36.246Z,6.18
2023-05-28T03:49:03.309Z,5.93
2023-05-28T03:51:30.919Z,5.88
2023-05-28T03:53:58.673Z,6.35
2023-05-28T03:58:52.835Z,5.90
2023-05-28T04:01:20.296Z,6.05
2023-05-28T04:03:47.361Z,6.28
2023-05-28T04:06:14.452Z,6.65
2023-05-28T04:11:08.176Z,4.97
2023-05-28T04:13:35.298Z,6.07
2023-05-28T04:16:03.920Z,6.18
2023-05-28T04:18:31.054Z,5.22
2023-05-28T04:20:58.817Z,6.50
2023-05-28T04:23:25.675Z,6.75
2023-05-28T04:25:54.802Z,5.72
2023-05-28T04:28:25.417Z,6.30
2023-05-28T04:30:55.457Z,5.13
2023-05-28T04:33:22.525Z,5.70
2023-05-28T04:35:49.456Z,6.18
2023-05-28T04:38:16.785Z,6.22
2023-05-28T04:43:11.003Z,5.65
2023-05-28T04:45:40.947Z,4.78
2023-05-28T04:48:08.611Z,4.82
2023-05-28T04:50:36.437Z,5.70
2023-05-28T04:53:03.333Z,5.60
2023-05-28T04:55:30.110Z,4.95
2023-05-28T04:57:57.544Z,4.40
2023-05-28T05:00:26.674Z,5.45
2023-05-28T05:02:58.797Z,4.90
2023-05-28T05:05:25.740Z,5.97
2023-05-28T05:10:20.320Z,5.28
2023-05-28T05:12:49.776Z,5.60
2023-05-28T05:15:16.822Z,6.00
2023-05-28T05:17:44.177Z,6.68
2023-05-28T05:20:11.432Z,5.97
2023-05-28T05:22:38.580Z,5.63
2023-05-28T05:25:07.434Z,5.07
2023-05-28T05:27:38.187Z,5.75
2023-05-28T05:30:06.427Z,5.47
2023-05-28T05:32:33.362Z,5.18
2023-05-28T05:35:00.343Z,5.05
2023-05-28T05:37:45.989Z,4.90
2023-05-28T05:40:24.886Z,4.85
2023-05-28T05:42:56.992Z,4.63
2023-05-28T05:45:25.031Z,4.63
2023-05-28T05:47:53.112Z,4.43
2023-05-28T05:50:20.452Z,5.05
2023-05-28T05:52:47.795Z,4.72
2023-05-28T05:57:42.842Z,5.47
2023-05-28T06:00:11.573Z,4.38
2023-05-28T06:02:41.367Z,5.03
2023-05-28T06:05:32.470Z,3.90
2023-05-28T06:08:25.653Z,6.63
2023-05-28T06:11:01.754Z,4.93
2023-05-28T06:13:29.146Z,4.53
2023-05-28T06:15:56.621Z,5.55
2023-05-28T06:18:27.082Z,4.72
2023-05-28T06:20:54.298Z,6.05
2023-05-28T06:23:21.448Z,4.90
2023-05-28T06:28:16.180Z,4.97
2023-05-28T06:30:43.774Z,4.40
2023-05-28T06:33:10.988Z,5.22
2023-05-28T06:35:40.106Z,5.80
2023-05-28T06:38:07.376Z,5.68
2023-05-28T06:40:34.303Z,4.03
2023-05-28T06:43:02.385Z,5.03
2023-05-28T06:45:45.509Z,4.65
2023-05-28T06:48:13.334Z,4.95
2023-05-28T06:50:40.493Z,3.92
2023-05-28T06:53:08.827Z,4.15
2023-05-28T06:55:35.783Z,4.85
2023-05-28T06:58:21.440Z,4.63
2023-05-28T07:01:11.456Z,4.22
2023-05-28T07:03:56.738Z,4.30
2023-05-28T07:06:33.355Z,4.80
2023-05-28T07:09:01.041Z,4.85
2023-05-28T07:11:27.998Z,4.60
2023-05-28T07:13:56.148Z,4.63
2023-05-28T07:16:24.795Z,3.80
2023-05-28T07:18:52.079Z,3.55
2023-05-28T07:21:19.849Z,4.80
2023-05-28T07:23:47.707Z,4.65
2023-05-28T07:26:15.176Z,4.22
2023-05-28T07:28:42.153Z,4.97
2023-05-28T07:31:09.207Z,4.60
2023-05-28T07:33:36.560Z,3.92
2023-05-28T07:36:04.837Z,4.05
2023-05-28T07:38:32.711Z,4.05
2023-05-28T07:41:01.425Z,3.97
2023-05-28T07:43:34.202Z,5.20
2023-05-28T07:46:06.217Z,4.43
2023-05-28T07:48:40.997Z,4.47
2023-05-28T07:51:28.523Z,4.05
2023-05-28T07:54:03.830Z,4.57
2023-05-28T07:56:32.838Z,4.43
2023-05-28T07:58:59.846Z,3.40
2023-05-28T08:01:26.619Z,4.18
2023-05-28T08:03:55.418Z,4.13
2023-05-28T08:06:27.960Z,4.63
2023-05-28T08:08:56.001Z,4.93
2023-05-28T08:11:23.178Z,4.15
2023-05-28T08:13:50.124Z,4.05
2023-05-28T08:16:18.956Z,4.20
2023-05-28T08:19:04.499Z,4.80
2023-05-28T08:21:32.218Z,4.25
2023-05-28T08:24:02.131Z,3.80
2023-05-28T08:26:30.641Z,4.68
2023-05-28T08:28:57.736Z,4.25
2023-05-28T08:31:26.131Z,3.88
2023-05-28T08:34:04.459Z,4.10
2023-05-28T08:36:32.500Z,3.75
2023-05-28T08:39:00.176Z,4.93
2023-05-28T08:41:29.303Z,4.78
2023-05-28T08:43:56.267Z,4.05
2023-05-28T08:46:23.839Z,4.47
2023-05-28T08:49:12.254Z,4.90
2023-05-28T08:51:44.554Z,4.65
2023-05-28T08:54:19.206Z,3.97
2023-05-28T08:56:46.502Z,5.00
2023-05-28T08:59:14.838Z,4.47
2023-05-28T09:01:41.813Z,4.95
2023-05-28T09:04:12.879Z,4.43
2023-05-28T09:06:46.677Z,4.55
2023-05-28T09:09:41.199Z,4.82
2023-05-28T09:12:12.329Z,4.32
2023-05-28T09:14:43.060Z,4.78
2023-05-28T09:17:10.620Z,3.97
2023-05-28T09:19:52.895Z,3.78
2023-05-28T09:22:21.000Z,3.83
2023-05-28T09:25:02.148Z,4.78
2023-05-28T09:27:38.063Z,3.72
2023-05-28T09:30:09.273Z,3.85
2023-05-28T09:32:36.628Z,4.25
2023-05-28T09:35:07.217Z,4.28
2023-05-28T09:37:36.965Z,5.35
2023-05-28T09:40:05.476Z,3.90
2023-05-28T09:42:44.680Z,4.68
2023-05-28T09:45:12.898Z,3.83
2023-05-28T09:47:46.691Z,4.68
2023-05-28T09:50:13.865Z,4.53
2023-05-28T09:52:46.493Z,3.88
2023-05-28T09:55:16.951Z,4.40
2023-05-28T09:57:55.368Z,4.05
2023-05-28T10:00:28.393Z,4.93
2023-05-28T10:03:13.871Z,3.70
2023-05-28T10:05:44.674Z,3.90
2023-05-28T10:08:17.868Z,3.97
2023-05-28T10:10:50.752Z,4.50
2023-05-28T10:13:17.681Z,4.85
2023-05-28T10:15:46.426Z,4.05
2023-05-28T10:18:17.436Z,3.70
2023-05-28T10:20:44.590Z,3.90
2023-05-28T10:23:11.970Z,3.70
2023-05-28T10:25:38.913Z,3.75
2023-05-28T10:28:06.814Z,4.68
2023-05-28T10:30:34.864Z,4.22
2023-05-28T10:33:04.852Z,4.70
2023-05-28T10:35:34.812Z,4.78
2023-05-28T10:38:09.522Z,4.25
2023-05-28T10:40:37.382Z,4.25
2023-05-28T10:43:04.418Z,4.13
2023-05-28T10:45:38.809Z,4.53
2023-05-28T10:48:10.786Z,4.10
2023-05-28T10:50:57.724Z,3.92
2023-05-28T10:55:56.565Z,4.15
2023-05-28T10:58:44.121Z,4.00
2023-05-28T11:01:10.971Z,4.68
2023-05-28T11:03:46.474Z,4.45
2023-05-28T11:06:14.267Z,4.20
2023-05-28T11:08:51.476Z,4.50
2023-05-28T11:11:19.525Z,4.30
2023-05-28T11:13:47.376Z,4.50
2023-05-28T11:16:17.630Z,3.95
2023-05-28T11:19:05.728Z,4.10
2023-05-28T11:21:34.672Z,4.20
2023-05-28T11:24:06.465Z,4.10
2023-05-28T11:26:33.996Z,3.97
2023-05-28T11:29:02.155Z,3.95
2023-05-28T11:31:29.871Z,4.45
2023-05-28T11:33:57.593Z,4.80
2023-05-28T11:36:24.350Z,4.80
2023-05-28T11:39:04.258Z,3.97
2023-05-28T11:41:32.483Z,4.05
2023-05-28T11:43:59.508Z,4.30
2023-05-28T11:46:26.402Z,4.05
2023-05-28T11:48:53.920Z,4.25
2023-05-28T11:51:21.682Z,4.03
2023-05-28T11:53:48.723Z,4.32
2023-05-28T11:56:15.774Z,3.83
2023-05-28T11:58:46.862Z,3.80
2023-05-28T12:01:17.438Z,4.20
2023-05-28T12:03:44.721Z,5.00
2023-05-28T12:06:20.488Z,4.85
2023-05-28T12:08:52.865Z,4.28
2023-05-28T12:11:27.246Z,4.32
2023-05-28T12:14:01.093Z,4.03
2023-05-28T12:16:28.060Z,5.18
2023-05-28T12:19:02.779Z,4.55
2023-05-28T12:21:29.952Z,4.53
2023-05-28T12:24:13.778Z,4.70
2023-05-28T12:26:44.562Z,4.60
2023-05-28T12:29:13.981Z,4.90
2023-05-28T12:31:41.137Z,4.35
2023-05-28T12:34:08.104Z,5.05
2023-05-28T12:36:35.733Z,4.20
2023-05-28T12:39:02.865Z,4.95
2023-05-28T12:41:29.891Z,4.93
2023-05-28T12:43:56.805Z,4.65
2023-05-28T12:46:23.837Z,4.90
2023-05-28T12:48:51.822Z,5.28
2023-05-28T12:51:19.486Z,5.35
2023-05-28T12:53:46.525Z,4.10
2023-05-28T12:56:14.589Z,4.55
2023-05-28T12:58:41.694Z,5.60
2023-05-28T13:01:09.264Z,5.57
2023-05-28T13:03:36.750Z,4.97
2023-05-28T13:06:03.770Z,5.13
2023-05-28T13:08:30.770Z,4.70
2023-05-28T13:10:57.718Z,4.90
2023-05-28T13:13:24.564Z,5.25
2023-05-28T13:15:51.569Z,5.50
2023-05-28T13:18:18.664Z,4.80
2023-05-28T13:20:45.684Z,8.02
2023-05-28T13:23:12.831Z,4.88
2023-05-28T13:25:39.817Z,5.70
2023-05-28T13:28:06.684Z,5.22
2023-05-28T13:30:33.554Z,4.90
2023-05-28T13:33:00.538Z,5.07
2023-05-28T13:35:27.552Z,5.95
2023-05-28T13:37:56.938Z,4.22
2023-05-28T13:40:25.294Z,4.72
2023-05-28T13:42:52.723Z,5.20
2023-05-28T13:45:19.634Z,5.07
2023-05-28T13:47:46.851Z,4.38
2023-05-28T13:50:15.850Z,4.65
2023-05-28T13:52:44.746Z,5.25
2023-05-28T13:55:11.558Z,5.72
2023-05-28T13:57:38.970Z,5.22
2023-05-28T14:00:08.404Z,5.03
2023-05-28T14:02:38.505Z,5.60
2023-05-28T14:05:06.060Z,5.07
2023-05-28T14:07:32.901Z,4.85
2023-05-28T14:09:59.618Z,4.70
2023-05-28T14:12:26.570Z,5.70
2023-05-28T14:14:53.454Z,4.68
2023-05-28T14:17:20.428Z,5.22
2023-05-28T14:19:48.549Z,5.63
2023-05-28T14:22:16.224Z,6.57
2023-05-28T14:24:43.141Z,7.88
2023-05-28T14:27:11.123Z,5.97
2023-05-28T14:29:38.143Z,7.40
2023-05-28T14:32:07.046Z,5.40
2023-05-28T14:34:34.336Z,5.32
2023-05-28T14:37:01.332Z,4.90
2023-05-28T14:39:28.933Z,4.82
2023-05-28T14:41:55.865Z,4.97
2023-05-28T14:44:22.733Z,4.72
2023-05-28T14:46:49.916Z,5.25
2023-05-28T14:49:16.844Z,5.15
2023-05-28T14:51:43.640Z,4.55
2023-05-28T14:54:10.854Z,4.88
2023-05-28T14:56:37.680Z,5.63
2023-05-28T14:59:04.669Z,4.93
2023-05-28T15:01:31.980Z,4.25
2023-05-28T15:03:58.884Z,4.82
2023-05-28T15:06:25.879Z,4.85
2023-05-28T15:08:52.938Z,4.88
2023-05-28T15:11:23.741Z,4.20
2023-05-28T15:13:51.729Z,4.10
2023-05-28T15:16:19.007Z,5.68
2023-05-28T15:18:45.793Z,4.30
2023-05-28T15:21:13.177Z,4.28
2023-05-28T15:23:40.323Z,5.55
2023-05-28T15:26:07.265Z,5.05
2023-05-28T15:28:34.351Z,4.70
2023-05-28T15:31:01.535Z,5.13
2023-05-28T15:33:29.584Z,4.75
2023-05-28T15:35:56.846Z,5.18
2023-05-28T15:38:24.219Z,4.68
2023-05-28T15:40:51.369Z,4.95
2023-05-28T15:43:18.448Z,4.72
2023-05-28T15:45:45.349Z,5.10
2023-05-28T15:48:12.243Z,5.55
2023-05-28T15:50:39.086Z,5.00
2023-05-28T15:53:05.910Z,4.30
2023-05-28T15:55:32.933Z,6.57
2023-05-28T15:57:59.977Z,5.55
2023-05-28T16:00:27.108Z,10.63
2023-05-28T16:02:55.721Z,40.22
2023-05-28T16:05:22.803Z,31.25
2023-05-28T16:07:50.045Z,7.85
2023-05-28T16:10:17.183Z,5.88
2023-05-28T16:12:44.573Z,4.97
2023-05-28T16:15:11.575Z,4.47
2023-05-28T16:17:40.105Z,4.72
2023-05-28T16:20:11.093Z,4.63
2023-05-28T16:22:38.937Z,5.15
2023-05-28T16:25:06.554Z,5.32
2023-05-28T16:27:35.660Z,4.88
2023-05-28T16:30:03.859Z,4.70
2023-05-28T16:32:31.276Z,4.82
2023-05-28T16:35:01.041Z,7.57
2023-05-28T16:37:28.151Z,7.78
2023-05-28T16:39:56.314Z,6.05
2023-05-28T16:42:24.185Z,5.45
2023-05-28T16:44:51.740Z,5.45
2023-05-28T16:47:18.852Z,5.47
2023-05-28T16:49:45.865Z,6.45
2023-05-28T16:52:12.737Z,8.32
2023-05-28T16:54:41.691Z,5.68
2023-05-28T16:57:08.564Z,5.38
2023-05-28T16:59:35.396Z,4.90
2023-05-28T17:02:02.256Z,5.82
2023-05-28T17:04:29.121Z,5.15
2023-05-28T17:06:59.682Z,6.07
2023-05-28T17:09:26.841Z,4.70
2023-05-28T17:11:53.624Z,4.38
2023-05-28T17:14:20.510Z,3.83
2023-05-28T17:16:47.697Z,5.05
2023-05-28T17:19:14.827Z,4.50
2023-05-28T17:21:43.820Z,4.20
2023-05-28T17:24:10.694Z,4.10
2023-05-28T17:26:37.573Z,4.60
2023-05-28T17:29:06.740Z,4.45
2023-05-28T17:31:36.381Z,4.15
2023-05-28T17:34:03.660Z,3.72
2023-05-28T17:36:30.524Z,4.32
2023-05-28T17:39:00.071Z,4.72
2023-05-28T17:41:28.125Z,4.00
2023-05-28T17:43:56.311Z,4.43
2023-05-28T17:46:34.505Z,5.10
2023-05-28T17:49:02.308Z,4.22
2023-05-28T17:51:32.093Z,3.92
2023-05-28T17:53:59.127Z,4.70
2023-05-28T17:56:26.946Z,3.95
2023-05-28T17:58:54.623Z,3.72
2023-05-28T18:01:21.549Z,4.60
2023-05-28T18:03:48.604Z,3.70
2023-05-28T18:06:15.589Z,4.07
2023-05-28T18:08:42.941Z,4.03
2023-05-28T18:11:09.930Z,4.38
2023-05-28T18:13:36.774Z,3.60
2023-05-28T18:16:03.739Z,3.90
2023-05-28T18:18:30.768Z,5.15
2023-05-28T18:20:57.867Z,4.22
2023-05-28T18:23:26.538Z,4.15
2023-05-28T18:25:53.384Z,4.40
2023-05-28T18:28:23.896Z,4.38
2023-05-28T18:30:51.724Z,4.40
2023-05-28T18:33:18.904Z,3.88
2023-05-28T18:35:45.829Z,4.28
2023-05-28T18:38:13.119Z,3.65
2023-05-28T18:40:40.407Z,4.65
2023-05-28T18:43:07.312Z,4.22
2023-05-28T18:45:34.219Z,4.50
2023-05-28T18:48:01.376Z,5.30
2023-05-28T18:50:28.266Z,5.22
2023-05-28T18:52:55.233Z,6.05
2023-05-28T18:55:22.075Z,3.95
2023-05-28T18:57:48.885Z,3.65
2023-05-28T19:00:16.241Z,12.15
2023-05-28T19:02:43.340Z,7.53
2023-05-28T19:05:10.485Z,4.60
2023-05-28T19:07:37.440Z,4.07
2023-05-28T19:10:04.540Z,3.30
2023-05-28T19:12:31.818Z,3.97
2023-05-28T19:15:01.401Z,4.00
2023-05-28T19:17:28.240Z,4.70
2023-05-28T19:19:54.949Z,5.90
2023-05-28T19:22:21.705Z,6.53
2023-05-28T19:24:49.807Z,5.53
2023-05-28T19:27:16.661Z,4.63
2023-05-28T19:29:43.469Z,3.42
2023-05-28T19:32:10.372Z,3.53
2023-05-28T19:34:37.494Z,3.25
2023-05-28T19:37:04.579Z,3.95
2023-05-28T19:39:31.379Z,3.88
2023-05-28T19:41:58.125Z,3.33
2023-05-28T19:44:25.127Z,3.33
2023-05-28T19:46:51.968Z,3.22
2023-05-28T19:49:18.818Z,2.70
2023-05-28T19:51:45.829Z,3.30
2023-05-28T19:54:13.584Z,3.03
2023-05-28T19:56:40.641Z,3.10
2023-05-28T19:59:07.450Z,2.80
2023-05-28T20:01:34.345Z,3.15
2023-05-28T20:04:01.308Z,3.47
2023-05-28T20:06:28.111Z,3.83
2023-05-28T20:08:54.949Z,3.67
2023-05-28T20:11:23.022Z,3.50
2023-05-28T20:13:49.916Z,3.35
2023-05-28T20:16:18.594Z,2.83
2023-05-28T20:18:45.504Z,4.10
2023-05-28T20:21:12.794Z,3.47
2023-05-28T20:23:39.603Z,3.83
2023-05-28T20:26:06.428Z,4.53
2023-05-28T20:28:33.278Z,4.63
2023-05-28T20:31:00.204Z,4.95
2023-05-28T20:33:27.069Z,4.78
2023-05-28T20:35:53.974Z,4.35
2023-05-28T20:38:20.808Z,4.93
2023-05-28T20:40:47.774Z,4.53
2023-05-28T20:43:14.510Z,4.55
2023-05-28T20:45:41.645Z,3.60
2023-05-28T20:48:08.592Z,4.30
2023-05-28T20:50:37.320Z,4.20
2023-05-28T20:53:04.602Z,4.05
2023-05-28T20:55:31.372Z,3.72
2023-05-28T20:58:01.068Z,3.50
2023-05-28T21:00:27.986Z,3.28
2023-05-28T21:02:57.534Z,3.70
2023-05-28T21:05:24.819Z,4.00
2023-05-28T21:07:52.470Z,4.20
2023-05-28T21:10:20.495Z,4.10
2023-05-28T21:12:47.373Z,4.07
2023-05-28T21:15:15.879Z,3.95
2023-05-28T21:17:42.740Z,3.78
2023-05-28T21:20:10.176Z,4.25
2023-05-28T21:22:37.103Z,3.60
2023-05-28T21:25:04.515Z,4.22
2023-05-28T21:27:31.542Z,5.25
2023-05-28T21:29:58.406Z,5.82
2023-05-28T21:32:25.497Z,4.78
2023-05-28T21:34:52.227Z,5.00
2023-05-28T21:39:45.839Z,4.15
2023-05-28T21:42:12.636Z,3.95
2023-05-28T21:44:39.412Z,4.05
2023-05-28T21:47:06.578Z,3.38
2023-05-28T21:49:33.447Z,3.70
2023-05-28T21:52:00.299Z,4.00
2023-05-28T21:54:27.054Z,4.63
2023-05-28T21:56:53.845Z,3.15
2023-05-28T21:59:21.039Z,4.63
2023-05-28T22:01:48.025Z,3.60
2023-05-28T22:04:14.930Z,3.60
2023-05-28T22:06:41.820Z,3.40
2023-05-28T22:09:08.924Z,4.30
2023-05-28T22:11:36.206Z,5.00
2023-05-28T22:14:03.377Z,4.70
2023-05-28T22:16:31.904Z,4.60
2023-05-28T22:18:59.711Z,4.18
2023-05-28T22:21:26.895Z,3.65
2023-05-28T22:23:53.797Z,3.53
2023-05-28T22:26:22.975Z,3.63
2023-05-28T22:28:58.579Z,4.30
2023-05-28T22:31:26.568Z,4.47
2023-05-28T22:33:53.502Z,4.50
2023-05-28T22:36:20.893Z,4.35
2023-05-28T22:38:48.481Z,4.63
2023-05-28T22:41:15.449Z,4.35
2023-05-28T22:43:44.430Z,4.68
2023-05-28T22:46:11.510Z,4.68
2023-05-28T22:48:39.635Z,4.50
2023-05-28T22:51:06.867Z,4.72
2023-05-28T22:53:34.075Z,3.88
2023-05-28T22:56:01.618Z,5.28
2023-05-28T22:58:28.721Z,5.20
2023-05-28T23:00:55.694Z,4.75
2023-05-28T23:03:22.722Z,4.93
2023-05-28T23:05:49.760Z,6.47
2023-05-28T23:08:17.630Z,7.03
2023-05-28T23:10:45.553Z,7.30
2023-05-28T23:13:12.530Z,7.20
2023-05-28T23:15:39.436Z,7.55
2023-05-28T23:18:07.419Z,6.97
2023-05-28T23:20:34.925Z,6.65
2023-05-28T23:23:01.964Z,7.03
2023-05-28T23:25:28.790Z,6.07
2023-05-28T23:27:55.637Z,5.45
2023-05-28T23:32:49.414Z,5.68
2023-05-28T23:35:16.673Z,5.57
2023-05-28T23:37:43.621Z,5.05
2023-05-28T23:40:12.149Z,4.18
2023-05-28T23:42:38.949Z,4.43
2023-05-28T23:47:33.945Z,5.30
2023-05-28T23:50:01.033Z,4.85
2023-05-28T23:52:27.874Z,4.63
2023-05-28T23:54:54.752Z,5.05
2023-05-28T23:57:21.694Z,4.45
2023-05-28T23:59:48.510Z,4.25
